Time;durP1;ratioP1;P1;durP2;ratioP2;P2;SDS_P1;SDS_P2;PMS_P1;PMS_P2;Temp;Humidity;BMP_temperature;BMP_pressure;BME280_temperature;BME280_humidity;BME280_pressure;Samples;Min_cycle;Max_cycle;Signal;HPM_P1;HPM_P2
2023/07/11 00:02:16;;;;;;;0.00;0.00;;;17.10;99.90;;;;;;4978989;28;20145;-68
2023/07/11 00:04:41;;;;;;;0.30;0.10;;;17.10;99.90;;;;;;5001677;28;20368;-68
2023/07/11 00:07:07;;;;;;;0.15;0.00;;;17.10;99.90;;;;;;5002030;28;20124;-67
2023/07/11 00:09:33;;;;;;;0.10;0.00;;;17.10;99.90;;;;;;5008022;28;20125;-67
2023/07/11 00:11:58;;;;;;;0.25;0.00;;;17.20;99.90;;;;;;5006524;28;20041;-67
2023/07/11 00:14:24;;;;;;;0.32;0.00;;;17.20;99.90;;;;;;4999758;28;20046;-67
2023/07/11 00:16:50;;;;;;;0.00;0.00;;;17.20;99.90;;;;;;5004339;28;20566;-65
2023/07/11 00:19:19;;;;;;;0.00;0.00;;;17.20;99.90;;;;;;5007223;28;20038;-67
2023/07/11 00:21:46;;;;;;;0.00;0.00;;;17.20;99.90;;;;;;5003089;28;20042;-67
2023/07/11 00:24:12;;;;;;;0.00;0.00;;;17.20;99.90;;;;;;4996645;28;20038;-68
2023/07/11 00:26:38;;;;;;;1.55;0.10;;;17.20;99.90;;;;;;5004566;28;20087;-68
2023/07/11 00:29:22;;;;;;;0.00;0.00;;;17.30;99.90;;;;;;5006361;28;20038;-67
2023/07/11 00:31:47;;;;;;;0.13;0.03;;;17.30;99.90;;;;;;5007359;28;20042;-68
2023/07/11 00:34:13;;;;;;;2.30;0.25;;;17.30;99.90;;;;;;5002115;28;20041;-67
2023/07/11 00:36:39;;;;;;;0.10;0.00;;;17.30;99.90;;;;;;5007341;28;20045;-67
2023/07/11 00:39:05;;;;;;;0.05;0.00;;;17.40;99.90;;;;;;5006949;28;20034;-68
2023/07/11 00:41:31;;;;;;;0.00;0.00;;;17.40;99.90;;;;;;5005721;28;20208;-67
2023/07/11 00:43:57;;;;;;;0.00;0.00;;;17.40;99.90;;;;;;5002104;28;20394;-67
2023/07/11 00:46:23;;;;;;;0.52;0.00;;;17.50;99.90;;;;;;5005458;28;20045;-67
2023/07/11 00:48:54;;;;;;;0.00;0.00;;;17.50;99.90;;;;;;4986014;28;20041;-67
2023/07/11 00:51:27;;;;;;;0.00;0.00;;;17.50;99.90;;;;;;5000144;28;20042;-67
2023/07/11 00:53:53;;;;;;;0.00;0.00;;;17.50;99.90;;;;;;5005454;28;20038;-67
2023/07/11 00:56:29;;;;;;;0.20;0.00;;;17.50;99.90;;;;;;5006138;28;20034;-67
2023/07/11 00:58:56;;;;;;;0.00;0.00;;;17.50;99.90;;;;;;4998777;28;20054;-67
2023/07/11 01:01:23;;;;;;;0.10;0.00;;;17.50;99.90;;;;;;5006692;28;20096;-68
2023/07/11 01:03:52;;;;;;;0.00;0.00;;;17.50;99.90;;;;;;5004413;28;20084;-67
2023/07/11 01:06:22;;;;;;;0.03;0.00;;;17.50;99.90;;;;;;5005689;28;20061;-67
2023/07/11 01:08:51;;;;;;;0.80;0.00;;;17.50;99.90;;;;;;5001894;28;20045;-66
2023/07/11 01:11:19;;;;;;;0.03;0.03;;;17.50;99.90;;;;;;4996498;28;20129;-67
2023/07/11 01:13:45;;;;;;;0.10;0.00;;;17.40;99.90;;;;;;5003688;28;20053;-67
2023/07/11 01:16:11;;;;;;;0.00;0.00;;;17.40;99.90;;;;;;5002465;28;20037;-67
2023/07/11 01:18:37;;;;;;;0.00;0.00;;;17.30;99.90;;;;;;5004321;28;20038;-68
2023/07/11 01:21:04;;;;;;;0.88;0.05;;;17.30;99.90;;;;;;5009014;28;20399;-67
2023/07/11 01:23:31;;;;;;;0.00;0.00;;;17.30;99.90;;;;;;5004394;28;20181;-67
2023/07/11 01:26:05;;;;;;;0.00;0.00;;;17.20;99.90;;;;;;5001402;28;20046;-67
2023/07/11 01:28:31;;;;;;;;;;;17.20;99.90;;;;;;4998275;28;20046;-68
2023/07/11 01:30:57;;;;;;;0.10;0.00;;;17.20;99.90;;;;;;5020134;28;20389;-69
2023/07/11 01:33:25;;;;;;;0.00;0.00;;;17.20;99.90;;;;;;5007545;28;20049;-67
2023/07/11 01:35:54;;;;;;;0.20;0.00;;;17.10;99.90;;;;;;5007885;28;20065;-67
2023/07/11 01:38:22;;;;;;;0.80;0.00;;;17.10;99.90;;;;;;4998883;28;20038;-68
2023/07/11 01:40:49;;;;;;;0.32;0.00;;;17.10;99.90;;;;;;5006600;28;20045;-67
2023/07/11 01:43:19;;;;;;;0.05;0.00;;;17.10;99.90;;;;;;5002384;28;20037;-66
2023/07/11 01:45:45;;;;;;;0.10;0.10;;;17.00;99.90;;;;;;5008100;28;20433;-67
2023/07/11 01:48:11;;;;;;;0.00;0.00;;;17.10;99.90;;;;;;5007711;28;20056;-67
2023/07/11 01:50:38;;;;;;;0.10;0.00;;;17.00;99.90;;;;;;5000096;28;20042;-67
2023/07/11 01:53:03;;;;;;;0.00;0.00;;;17.00;99.90;;;;;;5003480;28;20037;-67
2023/07/11 01:55:29;;;;;;;0.20;0.10;;;17.00;99.90;;;;;;4999291;28;20105;-67
2023/07/11 01:57:55;;;;;;;0.10;0.00;;;17.00;99.90;;;;;;4999417;28;20050;-67
2023/07/11 02:00:21;;;;;;;0.10;0.00;;;16.90;99.90;;;;;;5001026;28;20050;-67
2023/07/11 02:02:46;;;;;;;0.10;0.00;;;16.90;99.90;;;;;;5003377;28;20034;-68
2023/07/11 02:05:14;;;;;;;0.00;0.00;;;16.90;99.90;;;;;;5005725;28;20112;-68
2023/07/11 02:07:41;;;;;;;0.10;0.03;;;16.90;99.90;;;;;;5004438;28;20702;-67
2023/07/11 02:10:07;;;;;;;0.05;0.00;;;16.90;99.90;;;;;;5005218;28;20553;-69
2023/07/11 02:12:33;;;;;;;0.13;0.10;;;16.90;99.90;;;;;;5005438;28;20102;-66
2023/07/11 02:14:59;;;;;;;0.15;0.00;;;16.90;99.90;;;;;;5002723;28;20066;-67
2023/07/11 02:17:25;;;;;;;0.65;0.00;;;16.80;99.90;;;;;;5001152;28;20097;-67
2023/07/11 02:19:51;;;;;;;0.00;0.00;;;16.90;99.90;;;;;;5001438;28;20042;-68
2023/07/11 02:22:17;;;;;;;0.00;0.00;;;16.80;99.90;;;;;;5002446;28;20030;-67
2023/07/11 02:24:42;;;;;;;0.00;0.00;;;16.90;99.90;;;;;;5003799;28;20053;-67
2023/07/11 02:27:08;;;;;;;0.08;0.00;;;16.80;99.90;;;;;;5001676;28;20525;-67
2023/07/11 02:29:34;;;;;;;0.00;0.00;;;16.80;99.90;;;;;;4999827;28;20133;-67
2023/07/11 02:32:00;;;;;;;0.00;0.00;;;16.80;99.90;;;;;;5003033;28;20041;-67
2023/07/11 02:34:26;;;;;;;0.00;0.00;;;16.80;99.90;;;;;;5009063;28;20046;-66
2023/07/11 02:36:52;;;;;;;0.10;0.10;;;16.70;99.90;;;;;;4996439;28;20092;-68
2023/07/11 02:39:18;;;;;;;0.00;0.00;;;16.70;99.90;;;;;;5006234;28;20421;-68
2023/07/11 02:41:43;;;;;;;0.20;0.08;;;16.70;99.90;;;;;;4999595;28;20490;-67
2023/07/11 02:44:10;;;;;;;0.80;0.10;;;16.70;99.90;;;;;;5003801;28;20046;-67
2023/07/11 02:46:36;;;;;;;0.00;0.00;;;16.70;99.90;;;;;;4996019;28;20467;-67
2023/07/11 02:49:02;;;;;;;0.00;0.00;;;16.60;99.90;;;;;;5002511;28;20279;-67
2023/07/11 02:51:28;;;;;;;0.00;0.00;;;16.60;99.90;;;;;;5004432;28;20038;-68
2023/07/11 02:53:54;;;;;;;0.03;0.00;;;16.60;99.90;;;;;;5004766;28;20045;-68
2023/07/11 02:56:20;;;;;;;0.20;0.10;;;16.60;99.90;;;;;;5001298;28;20041;-68
2023/07/11 02:58:47;;;;;;;0.10;0.00;;;16.60;99.90;;;;;;5001861;28;20057;-67
2023/07/11 03:01:13;;;;;;;0.80;0.10;;;16.50;99.90;;;;;;5002580;28;20057;-67
2023/07/11 03:03:39;;;;;;;0.00;0.00;;;16.50;99.90;;;;;;4999147;28;20642;-67
2023/07/11 03:06:04;;;;;;;0.00;0.00;;;16.40;99.90;;;;;;4996621;28;20073;-67
2023/07/11 03:08:32;;;;;;;0.10;0.00;;;16.50;99.90;;;;;;5001187;28;20056;-67
2023/07/11 03:10:59;;;;;;;0.80;0.25;;;16.40;99.90;;;;;;4982429;28;20057;-67
2023/07/11 03:13:25;;;;;;;0.63;0.17;;;16.40;99.90;;;;;;4997884;28;20042;-66
2023/07/11 03:15:51;;;;;;;0.05;0.00;;;16.40;99.90;;;;;;4999835;28;20041;-68
2023/07/11 03:18:17;;;;;;;0.00;0.00;;;16.30;99.90;;;;;;5004259;28;20042;-67
2023/07/11 03:20:43;;;;;;;0.13;0.13;;;16.30;99.90;;;;;;5007398;28;20092;-67
2023/07/11 03:23:12;;;;;;;0.10;0.00;;;16.30;99.90;;;;;;5009927;28;20080;-68
2023/07/11 03:25:37;;;;;;;0.10;0.00;;;16.30;99.90;;;;;;5002732;28;20042;-66
2023/07/11 03:28:04;;;;;;;0.00;0.00;;;16.20;99.90;;;;;;5003923;28;20043;-67
2023/07/11 03:30:35;;;;;;;0.00;0.00;;;16.20;99.90;;;;;;5001171;28;20042;-67
2023/07/11 03:33:02;;;;;;;0.20;0.00;;;16.20;99.90;;;;;;5001038;28;20061;-68
2023/07/11 03:35:28;;;;;;;0.10;0.00;;;16.20;99.90;;;;;;5002611;28;20081;-67
2023/07/11 03:37:53;;;;;;;0.00;0.00;;;16.20;99.90;;;;;;5000525;28;20042;-67
2023/07/11 03:40:19;;;;;;;0.30;0.10;;;16.20;99.90;;;;;;4999920;28;20450;-66
2023/07/11 03:42:45;;;;;;;0.05;0.00;;;16.20;99.90;;;;;;5004866;28;20087;-67
2023/07/11 03:45:10;;;;;;;0.00;0.00;;;16.20;99.90;;;;;;5006193;28;20080;-68
2023/07/11 03:47:36;;;;;;;0.00;0.00;;;16.20;99.90;;;;;;4992081;28;20046;-66
2023/07/11 03:50:02;;;;;;;0.00;0.00;;;16.20;99.90;;;;;;5004370;28;20042;-66
2023/07/11 03:52:28;;;;;;;0.00;0.00;;;16.20;99.90;;;;;;5008531;28;20516;-67
2023/07/11 03:54:53;;;;;;;0.38;0.20;;;16.10;99.90;;;;;;5010451;28;20061;-67
2023/07/11 03:57:19;;;;;;;0.00;0.00;;;16.10;99.90;;;;;;5006152;28;20091;-68
2023/07/11 03:59:45;;;;;;;0.45;0.00;;;16.10;99.90;;;;;;5004295;28;20405;-67
2023/07/11 04:02:11;;;;;;;0.10;0.10;;;16.10;99.90;;;;;;5006523;28;20054;-67
2023/07/11 04:04:37;;;;;;;0.00;0.00;;;16.10;99.90;;;;;;5001966;28;20042;-67
2023/07/11 04:07:03;;;;;;;0.10;0.00;;;16.10;99.90;;;;;;5007785;28;20042;-68
2023/07/11 04:09:30;;;;;;;0.10;0.03;;;16.10;99.90;;;;;;5006014;28;20299;-66
2023/07/11 04:11:55;;;;;;;0.57;0.10;;;16.10;99.90;;;;;;5006016;28;20456;-67
2023/07/11 04:14:21;;;;;;;0.35;0.10;;;16.20;99.90;;;;;;5004404;28;20097;-66
2023/07/11 04:16:47;;;;;;;0.20;0.10;;;16.20;99.90;;;;;;5006834;28;20733;-67
2023/07/11 04:19:13;;;;;;;0.10;0.10;;;16.20;99.90;;;;;;5008037;28;20052;-67
2023/07/11 04:21:38;;;;;;;0.20;0.10;;;16.20;99.90;;;;;;5001779;28;20050;-67
2023/07/11 04:24:04;;;;;;;0.00;0.00;;;16.20;99.90;;;;;;5005408;28;20474;-67
2023/07/11 04:26:30;;;;;;;0.03;0.00;;;16.10;99.90;;;;;;5004485;28;20054;-67
2023/07/11 04:28:56;;;;;;;0.10;0.00;;;16.10;99.90;;;;;;5001505;28;20056;-68
2023/07/11 04:31:21;;;;;;;0.40;0.30;;;16.20;99.90;;;;;;5008465;28;20045;-67
2023/07/11 04:33:47;;;;;;;0.00;0.00;;;16.20;99.90;;;;;;5006035;28;20030;-66
2023/07/11 04:36:15;;;;;;;0.10;0.10;;;16.30;99.90;;;;;;5005820;28;20124;-68
2023/07/11 04:38:44;;;;;;;0.70;0.20;;;16.30;99.90;;;;;;5004383;28;20110;-67
2023/07/11 04:41:10;;;;;;;0.00;0.00;;;16.40;99.90;;;;;;5000874;28;20670;-67
2023/07/11 04:43:36;;;;;;;0.00;0.00;;;16.50;99.90;;;;;;5001961;28;20045;-67
2023/07/11 04:46:05;;;;;;;0.00;0.00;;;16.60;99.90;;;;;;5004885;28;20046;-67
2023/07/11 04:48:31;;;;;;;0.43;0.10;;;16.70;99.90;;;;;;5008941;28;20046;-67
2023/07/11 04:51:04;;;;;;;0.00;0.00;;;16.70;99.90;;;;;;5001494;28;20046;-67
2023/07/11 04:53:31;;;;;;;2.38;0.20;;;16.80;99.90;;;;;;5003742;28;20042;-67
2023/07/11 04:55:58;;;;;;;0.47;0.10;;;16.80;99.90;;;;;;5001320;28;20034;-67
2023/07/11 04:58:25;;;;;;;0.45;0.20;;;17.00;99.90;;;;;;4998773;28;20596;-68
2023/07/11 05:00:51;;;;;;;0.85;0.10;;;17.10;99.90;;;;;;5007335;28;20045;-67
2023/07/11 05:03:17;;;;;;;0.80;0.20;;;17.40;99.90;;;;;;5000576;28;20035;-67
2023/07/11 05:05:43;;;;;;;0.25;0.10;;;17.80;99.90;;;;;;5007927;28;20038;-68
2023/07/11 05:08:09;;;;;;;0.40;0.20;;;18.00;99.90;;;;;;5005123;28;20046;-67
2023/07/11 05:10:35;;;;;;;0.17;0.08;;;18.20;99.90;;;;;;5005718;28;20033;-67
2023/07/11 05:13:00;;;;;;;0.17;0.08;;;18.40;99.90;;;;;;5002216;28;20038;-67
2023/07/11 05:15:26;;;;;;;1.10;0.32;;;18.50;99.90;;;;;;5006948;28;20128;-67
2023/07/11 05:17:52;;;;;;;0.60;0.20;;;18.80;99.90;;;;;;4998298;28;20473;-67
2023/07/11 05:20:17;;;;;;;1.17;0.35;;;19.30;99.90;;;;;;5003950;28;20096;-67
2023/07/11 05:22:43;;;;;;;0.08;0.08;;;19.70;99.90;;;;;;5004091;28;20046;-67
2023/07/11 05:25:09;;;;;;;0.05;0.05;;;19.70;99.90;;;;;;4999085;28;20104;-67
2023/07/11 05:27:35;;;;;;;0.35;0.20;;;19.60;99.90;;;;;;5009728;28;20055;-67
2023/07/11 05:30:00;;;;;;;0.20;0.10;;;19.50;99.90;;;;;;5002198;28;20553;-67
2023/07/11 05:32:26;;;;;;;0.10;0.10;;;19.50;99.90;;;;;;5005582;28;20417;-67
2023/07/11 05:34:51;;;;;;;0.35;0.15;;;19.40;99.90;;;;;;5000564;28;20034;-66
2023/07/11 05:37:17;;;;;;;2.10;0.30;;;19.40;99.90;;;;;;4996336;28;20109;-66
2023/07/11 05:39:43;;;;;;;0.52;0.15;;;19.40;99.90;;;;;;5002407;28;20045;-67
2023/07/11 05:42:09;;;;;;;0.13;0.10;;;19.50;99.90;;;;;;5001939;28;20121;-66
2023/07/11 05:44:35;;;;;;;0.43;0.17;;;19.50;99.90;;;;;;5000372;28;20125;-66
2023/07/11 05:47:00;;;;;;;0.30;0.20;;;19.50;99.90;;;;;;5003697;28;20030;-67
2023/07/11 05:49:26;;;;;;;0.40;0.20;;;19.50;99.90;;;;;;5000481;28;20038;-67
2023/07/11 05:51:52;;;;;;;0.32;0.30;;;19.50;99.90;;;;;;5007841;28;20044;-67
2023/07/11 05:54:17;;;;;;;0.08;0.08;;;19.60;99.90;;;;;;5008390;28;20077;-67
2023/07/11 05:56:43;;;;;;;0.43;0.25;;;19.70;99.90;;;;;;5005676;28;20069;-67
2023/07/11 05:59:12;;;;;;;1.25;0.30;;;19.70;99.90;;;;;;5007767;28;20058;-68
2023/07/11 06:01:37;;;;;;;0.35;0.03;;;19.70;99.90;;;;;;5006751;28;20502;-67
2023/07/11 06:04:06;;;;;;;0.10;0.10;;;19.80;99.90;;;;;;5007346;28;20053;-67
2023/07/11 06:06:35;;;;;;;0.10;0.08;;;19.80;99.90;;;;;;5006533;28;20050;-67
2023/07/11 06:09:01;;;;;;;0.15;0.15;;;20.00;99.90;;;;;;5006316;28;20064;-67
2023/07/11 06:11:27;;;;;;;0.20;0.10;;;20.10;99.90;;;;;;5007307;28;20538;-67
2023/07/11 06:13:52;;;;;;;0.10;0.10;;;20.30;99.90;;;;;;5003008;28;20060;-67
2023/07/11 06:16:18;;;;;;;1.55;0.10;;;20.40;99.90;;;;;;5007575;28;20034;-67
2023/07/11 06:18:47;;;;;;;0.60;0.38;;;20.60;99.90;;;;;;5004071;28;20042;-67
2023/07/11 06:21:13;;;;;;;0.30;0.20;;;20.70;99.90;;;;;;5002454;28;20065;-67
2023/07/11 06:23:39;;;;;;;0.13;0.13;;;20.90;99.90;;;;;;5001035;28;20046;-67
2023/07/11 06:26:05;;;;;;;0.20;0.20;;;21.10;99.90;;;;;;4997895;28;20042;-67
2023/07/11 06:28:31;;;;;;;0.10;0.10;;;21.20;99.90;;;;;;5004250;28;20560;-66
2023/07/11 06:31:00;;;;;;;0.10;0.10;;;21.30;99.90;;;;;;5006195;28;20037;-67
2023/07/11 06:33:26;;;;;;;0.38;0.15;;;21.40;99.90;;;;;;5003462;28;20061;-66
2023/07/11 06:35:52;;;;;;;0.38;0.20;;;21.50;99.90;;;;;;4998169;28;20092;-67
2023/07/11 06:38:19;;;;;;;0.25;0.10;;;21.60;99.90;;;;;;5004404;28;20179;-67
2023/07/11 06:40:53;;;;;;;0.28;0.15;;;21.60;99.90;;;;;;4998882;28;20073;-66
2023/07/11 06:43:20;;;;;;;0.52;0.32;;;21.70;99.90;;;;;;5003933;28;20129;-67
2023/07/11 06:45:47;;;;;;;0.28;0.10;;;21.80;99.90;;;;;;5003867;28;20046;-67
2023/07/11 06:48:15;;;;;;;0.10;0.10;;;21.90;99.90;;;;;;5003001;28;20045;-67
2023/07/11 06:50:42;;;;;;;0.10;0.10;;;22.00;99.90;;;;;;5002345;28;20483;-67
2023/07/11 06:53:08;;;;;;;2.08;0.20;;;22.10;99.90;;;;;;5006849;28;20041;-67
2023/07/11 06:55:34;;;;;;;0.25;0.17;;;22.20;99.90;;;;;;5000992;28;20092;-67
2023/07/11 06:58:00;;;;;;;0.70;0.20;;;22.20;99.90;;;;;;5001373;28;20088;-67
2023/07/11 07:00:26;;;;;;;0.43;0.20;;;22.30;99.90;;;;;;5001611;28;20046;-67
2023/07/11 07:02:52;;;;;;;1.88;0.70;;;22.40;99.90;;;;;;4993350;28;20053;-67
2023/07/11 07:05:18;;;;;;;0.30;0.20;;;22.50;99.90;;;;;;5006343;28;20042;-67
2023/07/11 07:07:43;;;;;;;0.20;0.10;;;22.60;99.90;;;;;;5002539;28;20258;-67
2023/07/11 07:10:09;;;;;;;0.38;0.20;;;22.70;99.90;;;;;;5006239;28;20050;-67
2023/07/11 07:12:35;;;;;;;1.00;0.20;;;22.80;99.90;;;;;;5006696;28;20052;-67
2023/07/11 07:15:01;;;;;;;0.75;0.40;;;22.80;99.90;;;;;;5007414;28;20381;-67
2023/07/11 07:17:27;;;;;;;0.30;0.20;;;22.70;99.90;;;;;;5007498;28;20038;-67
2023/07/11 07:19:52;;;;;;;0.15;0.08;;;22.70;99.90;;;;;;5008825;28;20466;-67
2023/07/11 07:22:18;;;;;;;0.20;0.10;;;22.80;99.90;;;;;;4992069;28;20057;-67
2023/07/11 07:24:44;;;;;;;0.30;0.20;;;22.90;99.90;;;;;;5002194;28;20125;-67
2023/07/11 07:27:11;;;;;;;0.10;0.10;;;23.00;99.90;;;;;;4984204;28;20041;-67
2023/07/11 07:29:37;;;;;;;0.65;0.32;;;23.10;99.90;;;;;;4999244;28;20228;-67
2023/07/11 07:32:03;;;;;;;0.73;0.20;;;23.30;99.90;;;;;;5002603;28;20085;-68
2023/07/11 07:34:29;;;;;;;0.55;0.20;;;23.40;99.90;;;;;;4998968;28;20104;-66
2023/07/11 07:36:54;;;;;;;0.38;0.22;;;23.50;99.90;;;;;;5002337;28;20141;-67
2023/07/11 07:39:20;;;;;;;0.73;0.25;;;23.70;99.90;;;;;;5000019;28;20037;-67
2023/07/11 07:41:46;;;;;;;0.30;0.10;;;23.80;99.90;;;;;;4998194;28;20133;-66
2023/07/11 07:44:13;;;;;;;1.00;0.20;;;23.80;99.90;;;;;;5000620;28;20033;-67
2023/07/11 07:46:39;;;;;;;0.10;0.10;;;23.80;99.90;;;;;;5004730;28;20553;-67
2023/07/11 07:49:04;;;;;;;0.20;0.15;;;23.90;99.90;;;;;;5005360;28;20047;-67
2023/07/11 07:51:30;;;;;;;0.43;0.10;;;24.00;99.90;;;;;;4997163;28;20118;-67
2023/07/11 07:53:56;;;;;;;0.50;0.20;;;24.10;99.90;;;;;;5003631;28;20034;-67
2023/07/11 07:56:23;;;;;;;0.20;0.10;;;24.10;99.90;;;;;;5003490;28;20081;-68
2023/07/11 07:58:53;;;;;;;0.32;0.20;;;24.10;99.90;;;;;;4995033;28;20522;-67
2023/07/11 08:01:20;;;;;;;0.30;0.20;;;24.20;99.90;;;;;;4995034;28;20101;-67
2023/07/11 08:03:46;;;;;;;0.10;0.03;;;24.30;99.90;;;;;;5002196;28;20430;-67
2023/07/11 08:06:13;;;;;;;0.30;0.20;;;24.40;99.90;;;;;;5001865;28;20034;-67
2023/07/11 08:08:39;;;;;;;0.43;0.20;;;24.50;99.90;;;;;;4993632;28;20054;-67
2023/07/11 08:11:06;;;;;;;0.13;0.10;;;24.70;99.90;;;;;;4995931;28;20038;-68
2023/07/11 08:13:34;;;;;;;0.20;0.10;;;24.90;99.90;;;;;;5000307;28;20658;-67
2023/07/11 08:16:00;;;;;;;0.45;0.20;;;25.10;99.90;;;;;;5003611;28;20089;-67
2023/07/11 08:18:27;;;;;;;0.10;0.10;;;25.20;99.90;;;;;;4995501;28;20423;-67
2023/07/11 08:20:53;;;;;;;0.00;0.00;;;25.40;99.90;;;;;;4998885;28;20100;-68
2023/07/11 08:23:19;;;;;;;0.45;0.10;;;25.60;99.90;;;;;;5003148;28;20034;-67
2023/07/11 08:25:49;;;;;;;0.20;0.10;;;25.80;99.90;;;;;;5003427;28;20038;-67
2023/07/11 08:28:15;;;;;;;0.85;0.30;;;25.90;99.90;;;;;;4998755;28;20073;-67
2023/07/11 08:30:41;;;;;;;0.47;0.20;;;26.10;99.90;;;;;;5004186;28;20039;-67
2023/07/11 08:33:07;;;;;;;0.10;0.10;;;26.10;99.90;;;;;;5004126;28;20078;-67
2023/07/11 08:35:33;;;;;;;0.20;0.10;;;26.20;99.90;;;;;;5005683;28;20143;-67
2023/07/11 08:37:58;;;;;;;0.17;0.10;;;26.30;99.90;;;;;;5010176;28;20092;-67
2023/07/11 08:40:30;;;;;;;0.10;0.00;;;26.40;99.90;;;;;;5005038;28;20038;-67
2023/07/11 08:43:00;;;;;;;0.20;0.13;;;26.60;99.90;;;;;;5001690;28;20050;-67
2023/07/11 08:46:01;;;;;;;0.10;0.00;;;26.70;99.90;;;;;;5002402;28;20193;-66
2023/07/11 08:48:33;;;;;;;0.00;0.00;;;26.80;99.90;;;;;;5011657;28;20081;-67
2023/07/11 08:51:16;;;;;;;0.70;0.20;;;26.80;99.90;;;;;;5002799;28;20042;-66
2023/07/11 08:53:48;;;;;;;0.05;0.05;;;26.90;99.90;;;;;;5001559;28;20113;-66
2023/07/11 08:56:36;;;;;;;0.10;0.03;;;27.30;99.90;;;;;;5001865;28;20046;-67
2023/07/11 08:59:07;;;;;;;0.10;0.00;;;27.50;99.90;;;;;;5006179;28;20120;-67
2023/07/11 09:01:56;;;;;;;0.00;0.00;;;27.70;99.90;;;;;;5007441;28;20077;-67
2023/07/11 09:04:23;;;;;;;0.20;0.10;;;28.20;99.90;;;;;;5007141;28;20051;-66
2023/07/11 09:07:23;;;;;;;0.40;0.15;;;28.40;99.90;;;;;;5011697;28;20081;-66
2023/07/11 09:09:48;;;;;;;0.88;0.20;;;28.40;94.20;;;;;;5006433;28;20489;-67
2023/07/11 09:12:40;;;;;;;0.00;0.00;;;28.20;98.80;;;;;;4999365;28;20056;-67
2023/07/11 09:15:21;;;;;;;0.15;0.10;;;28.30;98.90;;;;;;4998983;28;20045;-68
2023/07/11 09:17:58;;;;;;;0.10;0.00;;;28.50;95.30;;;;;;4993994;28;20045;-66
2023/07/11 09:20:27;;;;;;;0.10;0.00;;;28.60;99.70;;;;;;5020629;28;20092;-67
2023/07/11 09:23:18;;;;;;;0.00;0.00;;;28.70;99.30;;;;;;5007126;28;20077;-67
2023/07/11 09:25:46;;;;;;;0.00;0.00;;;28.90;98.60;;;;;;4998808;28;20125;-67
2023/07/11 09:28:22;;;;;;;0.32;0.05;;;29.10;97.40;;;;;;4982183;28;20045;-67
2023/07/11 09:31:05;;;;;;;0.17;0.00;;;29.20;94.60;;;;;;5003723;28;20119;-67
2023/07/11 09:33:35;;;;;;;0.00;0.00;;;29.20;96.40;;;;;;5004085;28;20188;-67
2023/07/11 09:36:03;;;;;;;0.38;0.00;;;29.20;96.90;;;;;;5000871;28;20629;-66
2023/07/11 09:38:47;;;;;;;0.08;0.00;;;29.20;94.40;;;;;;5002230;28;20034;-67
2023/07/11 09:41:22;;;;;;;0.13;0.00;;;29.10;94.40;;;;;;5007794;28;20117;-66
2023/07/11 09:43:48;;;;;;;0.52;0.10;;;29.20;92.90;;;;;;4996973;28;20042;-65
2023/07/11 09:46:20;;;;;;;0.20;0.10;;;29.30;94.40;;;;;;5008018;28;20053;-66
2023/07/11 09:48:48;;;;;;;1.02;0.22;;;29.50;94.70;;;;;;5008623;28;20462;-66
2023/07/11 09:51:36;;;;;;;0.00;0.00;;;29.60;92.10;;;;;;5008814;28;20057;-66
2023/07/11 09:54:15;;;;;;;0.28;0.20;;;29.90;92.40;;;;;;5002841;28;20048;-67
2023/07/11 09:56:44;;;;;;;0.47;0.15;;;30.00;91.90;;;;;;5004065;28;20109;-66
2023/07/11 09:59:12;;;;;;;0.28;0.03;;;30.00;90.60;;;;;;5007800;28;20046;-66
2023/07/11 10:01:38;;;;;;;0.00;0.00;;;29.70;83.30;;;;;;5021991;28;20108;-66
2023/07/11 10:04:17;;;;;;;0.00;0.00;;;29.70;89.50;;;;;;4999581;28;20045;-66
2023/07/11 10:06:56;;;;;;;0.00;0.00;;;30.00;91.40;;;;;;5006605;28;20498;-66
2023/07/11 10:09:30;;;;;;;0.10;0.10;;;30.30;90.30;;;;;;5002775;28;20119;-66
2023/07/11 10:12:00;;;;;;;0.13;0.10;;;30.50;89.70;;;;;;4999228;28;20086;-67
2023/07/11 10:14:35;;;;;;;0.25;0.05;;;30.60;87.10;;;;;;5006504;28;20545;-67
2023/07/11 10:17:19;;;;;;;0.00;0.00;;;30.80;90.40;;;;;;5009342;28;20496;-66
2023/07/11 10:19:56;;;;;;;0.68;0.10;;;31.10;90.20;;;;;;5006876;28;20696;-66
2023/07/11 10:22:27;;;;;;;0.17;0.05;;;31.30;87.60;;;;;;5000348;28;20093;-66
2023/07/11 10:25:21;;;;;;;0.08;0.00;;;31.50;88.20;;;;;;5004286;28;20109;-66
2023/07/11 10:27:59;;;;;;;;;;;31.60;77.00;;;;;;5009564;28;20137;-66
2023/07/11 10:30:30;;;;;;;0.00;0.00;;;31.70;75.90;;;;;;5006685;28;19917;-66
2023/07/11 10:33:13;;;;;;;0.08;0.00;;;31.90;79.00;;;;;;5005197;28;20518;-66
2023/07/11 10:35:40;;;;;;;0.10;0.00;;;31.90;81.20;;;;;;5006892;28;20100;-66
2023/07/11 10:38:19;;;;;;;0.30;0.08;;;31.90;80.60;;;;;;5006004;28;20042;-66
2023/07/11 10:40:49;;;;;;;0.30;0.05;;;31.90;70.00;;;;;;5005697;28;20038;-66
2023/07/11 10:43:25;;;;;;;0.10;0.10;;;32.00;66.70;;;;;;4997426;28;20670;-66
2023/07/11 10:45:57;;;;;;;0.40;0.20;;;32.00;74.00;;;;;;5005609;28;20053;-66
2023/07/11 10:48:32;;;;;;;0.05;0.00;;;32.10;74.50;;;;;;5004037;28;20060;-69
2023/07/11 10:51:05;;;;;;;0.15;0.00;;;32.30;72.30;;;;;;5006598;28;20046;-69
2023/07/11 10:53:36;;;;;;;0.13;0.00;;;32.50;75.50;;;;;;4996083;28;20057;-69
2023/07/11 10:56:14;;;;;;;0.13;0.00;;;32.60;71.40;;;;;;5004895;28;20045;-69
2023/07/11 10:58:40;;;;;;;0.38;0.00;;;32.60;73.70;;;;;;5009097;28;20612;-68
2023/07/11 11:01:32;;;;;;;0.52;0.10;;;32.70;73.40;;;;;;5004951;28;20057;-69
2023/07/11 11:04:36;;;;;;;0.73;0.17;;;32.80;67.80;;;;;;5009794;28;20040;-65
2023/07/11 11:07:20;;;;;;;1.08;0.32;;;33.10;71.20;;;;;;5004149;28;20046;-65
2023/07/11 11:10:07;;;;;;;0.40;0.20;;;33.30;67.30;;;;;;4995064;28;20057;-65
2023/07/11 11:13:02;;;;;;;1.00;0.00;;;33.30;68.10;;;;;;5003037;28;20068;-65
2023/07/11 11:15:36;;;;;;;0.00;0.00;;;33.20;63.80;;;;;;5008181;28;20049;-68
2023/07/11 11:18:15;;;;;;;0.00;0.00;;;33.20;59.50;;;;;;4998999;28;20042;-66
2023/07/11 11:20:40;;;;;;;0.00;0.00;;;33.30;59.20;;;;;;5002357;28;20042;-66
2023/07/11 11:23:15;;;;;;;0.10;0.10;;;33.30;67.20;;;;;;5008871;28;20093;-65
2023/07/11 11:25:56;;;;;;;0.32;0.22;;;33.50;67.10;;;;;;5008609;28;20038;-65
2023/07/11 11:28:35;;;;;;;0.00;0.00;;;33.70;67.70;;;;;;5006093;28;20053;-66
2023/07/11 11:31:26;;;;;;;0.00;0.00;;;34.00;65.80;;;;;;5007781;28;20049;-66
2023/07/11 11:34:20;;;;;;;0.20;0.10;;;34.00;65.70;;;;;;5004141;28;20050;-66
2023/07/11 11:37:20;;;;;;;0.00;0.00;;;34.10;62.60;;;;;;4999099;28;20038;-66
2023/07/11 11:39:46;;;;;;;0.00;0.00;;;34.20;61.80;;;;;;4998712;28;20782;-66
2023/07/11 11:42:22;;;;;;;0.13;0.00;;;34.20;62.90;;;;;;4999059;28;20053;-66
2023/07/11 11:44:55;;;;;;;0.13;0.10;;;34.20;64.10;;;;;;5004415;28;20037;-66
2023/07/11 11:47:23;;;;;;;0.13;0.03;;;34.20;60.80;;;;;;4995473;28;20039;-67
2023/07/11 11:49:49;;;;;;;0.65;0.20;;;34.20;64.00;;;;;;4996725;28;20053;-66
2023/07/11 11:52:15;;;;;;;0.25;0.20;;;34.30;61.40;;;;;;5002821;28;20092;-66
2023/07/11 11:54:47;;;;;;;0.20;0.10;;;34.40;61.80;;;;;;5000402;28;20127;-66
2023/07/11 11:57:33;;;;;;;0.25;0.10;;;34.50;58.40;;;;;;4991867;28;20070;-66
2023/07/11 12:00:00;;;;;;;0.05;0.00;;;34.60;58.70;;;;;;4999834;28;20069;-66
2023/07/11 12:02:37;;;;;;;0.00;0.00;;;34.60;58.30;;;;;;5000667;28;20054;-67
2023/07/11 12:05:15;;;;;;;0.20;0.10;;;34.60;55.70;;;;;;5002896;28;20038;-66
2023/07/11 12:07:41;;;;;;;0.30;0.05;;;34.60;56.60;;;;;;4997878;28;20042;-66
2023/07/11 12:10:19;;;;;;;0.25;0.00;;;34.50;58.80;;;;;;5007030;28;20453;-66
2023/07/11 12:13:14;;;;;;;0.13;0.00;;;34.50;58.60;;;;;;5003213;28;20046;-66
2023/07/11 12:15:47;;;;;;;0.85;0.30;;;34.50;57.00;;;;;;5005676;28;20029;-65
2023/07/11 12:18:29;;;;;;;0.03;0.00;;;34.50;57.60;;;;;;4996845;28;20042;-66
2023/07/11 12:21:14;;;;;;;0.17;0.00;;;34.40;54.40;;;;;;5003224;28;20053;-66
2023/07/11 12:23:43;;;;;;;0.35;0.00;;;34.30;53.20;;;;;;5006733;28;20037;-66
2023/07/11 12:26:24;;;;;;;0.08;0.03;;;34.10;56.10;;;;;;5004124;28;20030;-66
2023/07/11 12:28:54;;;;;;;0.32;0.00;;;34.00;58.20;;;;;;4999864;28;20068;-67
2023/07/11 12:31:24;;;;;;;0.13;0.00;;;34.00;57.40;;;;;;5005470;28;20137;-68
2023/07/11 12:34:02;;;;;;;0.10;0.10;;;34.10;55.60;;;;;;5007290;28;20046;-68
2023/07/11 12:36:49;;;;;;;0.25;0.03;;;34.00;57.60;;;;;;5006554;28;20045;-67
2023/07/11 12:39:43;;;;;;;0.20;0.10;;;33.70;55.10;;;;;;4998306;28;20360;-67
2023/07/11 12:42:25;;;;;;;1.45;0.35;;;33.40;56.90;;;;;;5003866;28;20050;-67
2023/07/11 12:44:51;;;;;;;0.22;0.00;;;33.10;56.30;;;;;;5007016;28;20042;-66
2023/07/11 12:47:19;;;;;;;0.10;0.00;;;32.80;57.90;;;;;;5003831;28;20096;-68
2023/07/11 12:49:48;;;;;;;0.10;0.08;;;32.60;58.50;;;;;;5005626;28;20488;-67
2023/07/11 12:52:21;;;;;;;0.00;0.00;;;32.50;58.00;;;;;;5004568;28;20046;-67
2023/07/11 12:54:48;;;;;;;0.28;0.10;;;32.30;56.20;;;;;;4999916;28;20050;-67
2023/07/11 12:57:17;;;;;;;0.13;0.00;;;32.00;58.00;;;;;;5005621;28;20117;-67
2023/07/11 12:59:43;;;;;;;0.20;0.10;;;31.90;58.50;;;;;;5003918;28;20057;-67
2023/07/11 13:02:13;;;;;;;0.00;0.00;;;32.10;59.20;;;;;;5005343;28;20390;-67